Munroe Falls, Ohio
Current Conditions -  °F | °C
As of 6:54 PM on Friday 31 Oct 2014 (Local Time) from KAKR Reporting Station
Light Rain Light Rain  
Wind Chill: 45°   Ceiling: 2500
Heat Index: 45°   Visibility: 6mi
Dew Point: 41°   Wind: 0mph
Humidity: 86%   Direction: NA
Pressure: 29.87"   Gusts: NA
Location:  41.14°N, 81.44°W
Report Text: KAKR 312254Z AUTO 00000KT 6SM -RA BR OVC025 07/05 A2987 RMK AO2 SLP117 P0002 T00720050
Loading
Personal Weather Stations






























Interactive Weather Map
Tropical Storm Tracking
New forecast layout! Learn more

10-Day Weather Forecast

Advertisements
Track Severe Weather on mobile